Time;durP1;ratioP1;P1;durP2;ratioP2;P2;SDS_P1;SDS_P2;PMS_P1;PMS_P2;Temp;Humidity;BMP_temperature;BMP_pressure;BME280_temperature;BME280_humidity;BME280_pressure;Samples;Min_cycle;Max_cycle;Signal;HPM_P1;HPM_P2
2021/06/17 00:01:41;;;;;;;8.68;2.55;;;16.70;69.70;;;;;;5075937;28;20028;-78
2021/06/17 00:04:06;;;;;;;8.38;1.25;;;16.70;69.90;;;;;;5075677;28;20057;-80
2021/06/17 00:06:32;;;;;;;5.68;1.30;;;16.70;70.00;;;;;;5075662;28;20473;-80
2021/06/17 00:08:58;;;;;;;7.88;1.63;;;16.60;70.10;;;;;;5092481;28;20034;-79
2021/06/17 00:11:24;;;;;;;9.10;1.40;;;16.60;70.20;;;;;;5109488;28;20027;-79
2021/06/17 00:13:51;;;;;;;6.90;1.58;;;16.50;70.40;;;;;;5092424;28;20027;-78
2021/06/17 00:16:18;;;;;;;3.33;1.20;;;16.50;70.50;;;;;;5075918;28;20045;-78
2021/06/17 00:18:44;;;;;;;5.57;1.55;;;16.50;70.70;;;;;;5092451;28;20036;-79
2021/06/17 00:21:10;;;;;;;3.95;1.45;;;16.50;70.80;;;;;;5109267;28;20022;-79
2021/06/17 00:23:36;;;;;;;6.60;2.20;;;16.50;70.90;;;;;;5091456;28;20466;-80
2021/06/17 00:26:03;;;;;;;6.45;1.50;;;16.40;71.00;;;;;;5109992;28;20031;-81
2021/06/17 00:28:30;;;;;;;7.10;1.77;;;16.40;71.10;;;;;;5110347;28;20047;-79
2021/06/17 00:30:56;;;;;;;6.30;1.30;;;16.40;71.20;;;;;;5092282;28;20023;-79
2021/06/17 00:33:22;;;;;;;9.27;2.30;;;16.30;71.40;;;;;;5092225;28;20448;-77
2021/06/17 00:35:48;;;;;;;10.20;1.75;;;16.30;72.10;;;;;;5108874;28;20062;-77
2021/06/17 00:38:14;;;;;;;7.28;1.60;;;16.30;71.70;;;;;;5110696;28;20094;-79
2021/06/17 00:40:41;;;;;;;5.78;1.33;;;16.30;71.90;;;;;;5109048;28;20027;-79
2021/06/17 00:43:07;;;;;;;9.30;1.40;;;16.30;72.10;;;;;;5109054;28;20054;-78
2021/06/17 00:45:43;;;;;;;6.18;1.55;;;16.30;72.20;;;;;;5110007;28;20050;-78
2021/06/17 00:48:10;;;;;;;8.40;1.70;;;16.30;72.40;;;;;;5108354;28;20028;-80
2021/06/17 00:50:40;;;;;;;6.40;1.63;;;16.30;72.50;;;;;;5074361;28;20027;-79
2021/06/17 00:53:13;;;;;;;6.85;1.30;;;16.20;72.60;;;;;;5108387;28;20026;-80
2021/06/17 00:55:44;;;;;;;5.55;1.33;;;16.20;72.80;;;;;;5091372;28;20451;-78
2021/06/17 00:58:11;;;;;;;11.25;1.70;;;16.20;72.90;;;;;;5091687;28;20047;-80
2021/06/17 01:00:37;;;;;;;7.65;1.83;;;16.20;72.90;;;;;;5108610;28;20016;-78
2021/06/17 01:03:04;;;;;;;4.93;1.67;;;16.10;73.00;;;;;;5091352;28;20035;-79
2021/06/17 01:05:29;;;;;;;5.95;1.38;;;16.10;73.10;;;;;;5091388;28;20560;-78
2021/06/17 01:08:12;;;;;;;6.65;1.45;;;16.00;73.10;;;;;;5108438;28;20122;-81
2021/06/17 01:10:42;;;;;;;7.55;2.00;;;15.90;73.30;;;;;;5109747;28;20350;-79
2021/06/17 01:13:22;;;;;;;6.90;2.45;;;15.90;73.40;;;;;;5108421;28;20024;-81
2021/06/17 01:15:57;;;;;;;7.82;1.65;;;15.80;73.70;;;;;;5109470;28;20028;-79
2021/06/17 01:18:24;;;;;;;7.93;1.45;;;15.70;73.70;;;;;;5108291;28;20019;-79
2021/06/17 01:20:56;;;;;;;7.65;2.53;;;15.60;73.80;;;;;;5109306;28;20538;-80
2021/06/17 01:23:28;;;;;;;7.32;1.42;;;15.50;74.00;;;;;;5109496;28;20412;-79
2021/06/17 01:26:13;;;;;;;9.13;1.50;;;15.40;74.10;;;;;;5108219;28;20020;-79
2021/06/17 01:28:40;;;;;;;9.55;1.85;;;15.30;74.50;;;;;;5108139;28;20023;-79
2021/06/17 01:31:16;;;;;;;9.23;1.88;;;15.20;74.60;;;;;;5090984;28;20031;-78
2021/06/17 01:33:47;;;;;;;4.07;1.25;;;15.10;75.00;;;;;;5109155;28;20023;-78
2021/06/17 01:36:20;;;;;;;4.25;1.25;;;15.10;75.20;;;;;;5107385;28;20118;-79
2021/06/17 01:38:54;;;;;;;5.68;1.45;;;15.00;75.40;;;;;;5109218;28;20016;-80
2021/06/17 01:41:27;;;;;;;6.15;1.65;;;14.90;75.70;;;;;;5107693;28;20035;-77
2021/06/17 01:43:54;;;;;;;6.35;1.52;;;14.90;76.00;;;;;;5108933;28;20012;-79
2021/06/17 01:46:20;;;;;;;10.32;1.52;;;14.80;76.00;;;;;;5107617;28;20038;-78
2021/06/17 01:48:50;;;;;;;7.22;1.50;;;14.80;76.30;;;;;;5090595;28;20035;-77
2021/06/17 01:51:20;;;;;;;7.28;1.17;;;14.70;76.50;;;;;;5108771;28;20027;-78
2021/06/17 01:53:50;;;;;;;12.63;1.73;;;14.60;76.60;;;;;;5107279;28;20046;-79
2021/06/17 01:56:19;;;;;;;10.75;1.60;;;14.50;76.80;;;;;;5107508;28;20031;-78
2021/06/17 01:58:46;;;;;;;6.25;1.45;;;14.40;77.10;;;;;;5090346;28;20028;-81
2021/06/17 02:01:14;;;;;;;11.13;2.28;;;14.30;77.30;;;;;;5090484;28;20030;-79
2021/06/17 02:03:44;;;;;;;8.55;2.13;;;14.30;77.60;;;;;;5108348;28;20382;-79
2021/06/17 02:06:15;;;;;;;10.38;2.15;;;14.20;77.90;;;;;;5107336;28;20096;-79
2021/06/17 02:08:44;;;;;;;8.55;1.60;;;14.20;78.10;;;;;;5107557;28;20031;-78
2021/06/17 02:11:11;;;;;;;10.55;2.00;;;14.10;78.30;;;;;;5107567;28;20032;-80
2021/06/17 02:13:37;;;;;;;10.90;2.08;;;14.10;78.50;;;;;;5107043;28;20075;-78
2021/06/17 02:16:04;;;;;;;5.78;1.85;;;14.00;78.70;;;;;;5106985;28;20038;-81
2021/06/17 02:18:31;;;;;;;8.85;1.40;;;14.00;79.00;;;;;;5090353;28;20057;-80
2021/06/17 02:20:57;;;;;;;8.63;1.70;;;13.90;79.20;;;;;;5107328;28;20131;-79
2021/06/17 02:23:26;;;;;;;6.32;1.40;;;13.90;79.50;;;;;;5108363;28;20501;-79
2021/06/17 02:25:54;;;;;;;9.88;1.67;;;13.90;79.70;;;;;;5108430;28;20080;-78
2021/06/17 02:28:22;;;;;;;13.43;1.90;;;13.90;79.90;;;;;;5090119;28;20100;-78
2021/06/17 02:30:49;;;;;;;11.02;1.85;;;13.90;80.10;;;;;;5107213;28;20023;-79
2021/06/17 02:33:19;;;;;;;8.13;1.63;;;13.80;80.30;;;;;;5106853;28;20058;-80
2021/06/17 02:35:50;;;;;;;15.45;3.22;;;13.80;80.50;;;;;;5106858;28;20119;-79
2021/06/17 02:38:19;;;;;;;9.18;2.47;;;13.80;80.60;;;;;;5107129;28;20023;-79
2021/06/17 02:40:47;;;;;;;9.38;2.33;;;13.70;80.70;;;;;;5106811;28;20027;-79
2021/06/17 02:43:22;;;;;;;5.97;1.33;;;13.70;80.80;;;;;;5089873;28;20039;-79
2021/06/17 02:45:49;;;;;;;5.60;2.08;;;13.70;81.10;;;;;;5089718;28;20036;-81
2021/06/17 02:48:16;;;;;;;7.72;1.60;;;13.70;81.20;;;;;;5092111;28;20044;-80
2021/06/17 02:50:42;;;;;;;7.82;1.70;;;13.60;81.40;;;;;;5093966;28;20062;-79
2021/06/17 02:53:08;;;;;;;5.03;1.92;;;13.60;81.60;;;;;;5093982;28;20059;-77
2021/06/17 02:55:34;;;;;;;7.95;2.13;;;13.60;81.80;;;;;;5110691;28;20050;-79
2021/06/17 02:58:23;;;;;;;9.90;1.52;;;13.50;82.00;;;;;;5110994;28;20019;-79
2021/06/17 03:01:21;;;;;;;8.55;1.90;;;13.40;82.40;;;;;;5110774;28;20492;-79
2021/06/17 03:03:52;;;;;;;8.27;2.22;;;13.40;82.60;;;;;;5109917;28;20051;-80
2021/06/17 03:06:26;;;;;;;14.70;2.38;;;13.40;82.80;;;;;;5110655;28;20317;-79
2021/06/17 03:09:01;;;;;;;8.55;2.10;;;13.30;83.00;;;;;;5093724;28;20486;-80
2021/06/17 03:11:32;;;;;;;12.95;1.98;;;13.30;83.30;;;;;;5110689;28;20071;-81
2021/06/17 03:14:02;;;;;;;8.65;1.60;;;13.20;83.50;;;;;;5111910;28;20030;-78
2021/06/17 03:16:34;;;;;;;6.15;1.40;;;13.20;83.70;;;;;;5111418;28;20400;-80
2021/06/17 03:19:01;;;;;;;8.50;1.98;;;13.10;84.00;;;;;;5111736;28;20028;-79
2021/06/17 03:21:39;;;;;;;7.95;2.22;;;13.10;84.10;;;;;;5093362;28;20024;-79
2021/06/17 03:24:06;;;;;;;3.97;1.38;;;13.10;85.00;;;;;;5110473;28;20027;-79
2021/06/17 03:26:35;;;;;;;6.35;1.58;;;13.00;84.60;;;;;;5110251;28;20049;-80
2021/06/17 03:29:02;;;;;;;6.93;1.63;;;13.00;84.80;;;;;;5110188;28;20031;-82
2021/06/17 03:31:28;;;;;;;6.65;1.60;;;13.00;85.10;;;;;;5093177;28;20100;-80
2021/06/17 03:33:56;;;;;;;6.30;1.40;;;13.00;85.30;;;;;;5111312;28;20043;-80
2021/06/17 03:36:23;;;;;;;7.95;3.17;;;12.90;85.50;;;;;;5109930;28;20560;-79
2021/06/17 03:38:51;;;;;;;10.68;2.17;;;12.90;85.70;;;;;;5093180;28;20051;-79
2021/06/17 03:41:18;;;;;;;7.07;1.83;;;12.90;86.00;;;;;;5111395;28;20386;-80
2021/06/17 03:43:45;;;;;;;9.55;1.98;;;12.90;86.10;;;;;;5111255;28;20333;-79
2021/06/17 03:46:11;;;;;;;5.78;1.95;;;12.90;86.30;;;;;;5111308;28;20035;-82
2021/06/17 03:48:44;;;;;;;10.25;2.10;;;12.80;86.50;;;;;;5093015;28;20028;-80
2021/06/17 03:51:13;;;;;;;8.05;1.60;;;12.80;86.90;;;;;;5092965;28;20080;-78
2021/06/17 03:53:40;;;;;;;7.10;1.63;;;12.80;87.00;;;;;;5111071;28;20019;-79
2021/06/17 03:56:07;;;;;;;6.82;1.38;;;12.80;87.30;;;;;;5092440;28;20490;-79
2021/06/17 03:58:33;;;;;;;11.13;2.13;;;12.70;87.50;;;;;;5110499;28;20027;-80
2021/06/17 04:01:00;;;;;;;8.73;2.28;;;12.80;87.80;;;;;;5109643;28;20110;-80
2021/06/17 04:03:28;;;;;;;8.70;1.60;;;12.80;88.00;;;;;;5109379;28;20027;-82
2021/06/17 04:05:58;;;;;;;17.77;2.35;;;12.70;88.20;;;;;;5092872;28;20089;-79
2021/06/17 04:08:29;;;;;;;10.55;1.85;;;12.70;88.40;;;;;;5092845;28;20031;-79
2021/06/17 04:11:00;;;;;;;11.55;2.75;;;12.70;88.60;;;;;;5109626;28;20027;-78
2021/06/17 04:13:33;;;;;;;9.70;2.22;;;12.70;88.80;;;;;;5110762;28;20023;-80
2021/06/17 04:16:00;;;;;;;10.07;2.08;;;12.70;89.10;;;;;;5110687;28;20028;-80
2021/06/17 04:18:27;;;;;;;11.43;1.70;;;12.70;89.20;;;;;;5092496;28;20035;-79
2021/06/17 04:20:55;;;;;;;9.35;2.65;;;12.70;89.40;;;;;;5111156;28;20054;-80
2021/06/17 04:23:22;;;;;;;10.07;2.03;;;12.70;89.70;;;;;;5109287;28;20020;-80
2021/06/17 04:25:49;;;;;;;7.40;1.83;;;12.70;89.90;;;;;;5108989;28;20058;-79
2021/06/17 04:28:16;;;;;;;6.50;1.55;;;12.70;90.00;;;;;;5110643;28;20062;-80
2021/06/17 04:30:44;;;;;;;6.55;1.17;;;12.70;90.00;;;;;;5092298;28;20076;-80
2021/06/17 04:33:12;;;;;;;8.25;1.65;;;12.80;90.10;;;;;;5109024;28;20027;-79
2021/06/17 04:35:45;;;;;;;9.43;2.17;;;12.80;90.20;;;;;;5110192;28;20473;-80
2021/06/17 04:38:13;;;;;;;9.38;1.40;;;12.80;90.20;;;;;;5109125;28;20458;-80
2021/06/17 04:40:40;;;;;;;10.65;2.95;;;12.80;90.20;;;;;;5108825;28;20039;-80
2021/06/17 04:43:06;;;;;;;6.00;1.40;;;12.80;90.30;;;;;;5092042;28;20027;-80
2021/06/17 04:45:32;;;;;;;11.77;1.80;;;12.70;90.30;;;;;;5091717;28;20027;-80
2021/06/17 04:48:00;;;;;;;10.65;2.45;;;12.80;90.40;;;;;;5075193;28;20031;-79
2021/06/17 04:50:27;;;;;;;9.75;1.63;;;12.80;90.50;;;;;;5108848;28;20039;-79
2021/06/17 04:52:56;;;;;;;9.77;1.52;;;12.80;90.60;;;;;;5091657;28;20122;-81
2021/06/17 04:55:22;;;;;;;21.50;2.47;;;12.90;90.60;;;;;;5108622;28;20023;-79
2021/06/17 04:57:47;;;;;;;15.68;2.72;;;13.00;90.50;;;;;;5091639;28;20434;-80
2021/06/17 05:00:14;;;;;;;9.77;1.98;;;13.00;90.50;;;;;;5109914;28;20542;-79
2021/06/17 05:02:40;;;;;;;10.70;1.92;;;13.00;90.50;;;;;;5109785;28;20040;-79
2021/06/17 05:05:08;;;;;;;8.07;2.00;;;13.10;90.60;;;;;;5108556;28;20077;-79
2021/06/17 05:12:46;;;;;;;10.18;1.85;;;13.10;90.60;;;;;;5108637;28;20062;-79
2021/06/17 05:15:11;;;;;;;20.02;2.58;;;13.10;90.60;;;;;;5107975;28;20482;-79
2021/06/17 05:17:37;;;;;;;8.65;2.03;;;13.10;90.60;;;;;;5108300;28;20034;-79
2021/06/17 05:20:06;;;;;;;10.20;2.55;;;13.10;90.70;;;;;;5108048;28;20060;-79
2021/06/17 05:22:34;;;;;;;11.63;1.80;;;13.10;90.70;;;;;;5090906;28;20055;-80
2021/06/17 05:25:00;;;;;;;13.65;2.88;;;13.20;90.70;;;;;;5107793;28;20516;-79
2021/06/17 05:27:26;;;;;;;18.17;2.20;;;13.20;90.70;;;;;;5091210;28;20063;-79
2021/06/17 05:29:51;;;;;;;6.68;1.70;;;13.20;90.70;;;;;;5091201;28;20081;-78
2021/06/17 05:32:18;;;;;;;12.25;2.50;;;13.30;90.80;;;;;;5091192;28;20039;-78
2021/06/17 05:34:44;;;;;;;17.63;2.30;;;13.40;90.70;;;;;;5107914;28;20118;-79
2021/06/17 05:37:10;;;;;;;10.63;2.00;;;13.40;90.70;;;;;;5091322;28;20051;-78
2021/06/17 05:39:37;;;;;;;20.85;2.42;;;13.50;90.80;;;;;;5090874;28;20051;-78
2021/06/17 05:42:03;;;;;;;11.57;2.40;;;13.60;90.80;;;;;;5109162;28;20022;-78
2021/06/17 05:44:29;;;;;;;10.30;1.63;;;13.60;90.80;;;;;;5090794;28;20397;-77
2021/06/17 05:46:55;;;;;;;11.98;1.88;;;13.90;91.10;;;;;;5090847;28;20032;-78
2021/06/17 05:49:24;;;;;;;12.95;2.45;;;14.40;91.00;;;;;;5107677;28;20038;-77
2021/06/17 05:51:50;;;;;;;11.73;1.90;;;15.40;90.50;;;;;;5107516;28;20024;-78
2021/06/17 05:54:16;;;;;;;7.10;1.33;;;16.50;87.00;;;;;;5108536;28;20110;-78
2021/06/17 05:56:42;;;;;;;10.95;2.13;;;16.80;83.80;;;;;;5073830;28;20031;-80
2021/06/17 05:59:07;;;;;;;12.38;1.80;;;16.60;83.20;;;;;;5073449;28;20395;-78
2021/06/17 06:01:33;;;;;;;40.85;3.22;;;16.50;84.50;;;;;;5107392;28;20072;-77
2021/06/17 06:03:59;;;;;;;15.23;1.88;;;17.40;85.50;;;;;;5107002;28;20560;-78
2021/06/17 06:06:25;;;;;;;9.85;2.63;;;19.00;83.00;;;;;;5107297;28;20529;-79
2021/06/17 06:08:50;;;;;;;12.25;2.03;;;20.40;79.10;;;;;;5107210;28;20024;-80
2021/06/17 06:11:16;;;;;;;9.95;2.20;;;21.80;75.00;;;;;;5107104;28;20106;-78
2021/06/17 06:13:42;;;;;;;12.93;1.75;;;22.90;71.80;;;;;;5089634;28;20028;-79
2021/06/17 06:16:09;;;;;;;6.63;1.80;;;23.80;68.70;;;;;;5106485;28;20439;-79
2021/06/17 06:18:35;;;;;;;7.53;1.73;;;24.60;65.90;;;;;;5106841;28;20489;-79
2021/06/17 06:21:01;;;;;;;9.90;2.83;;;25.30;63.70;;;;;;5089979;28;20035;-79
2021/06/17 06:23:28;;;;;;;9.48;1.73;;;25.80;61.40;;;;;;5089548;28;20028;-78
2021/06/17 06:25:55;;;;;;;6.45;1.77;;;26.00;60.30;;;;;;5107982;28;20088;-79
2021/06/17 06:28:21;;;;;;;12.88;2.28;;;26.00;59.40;;;;;;5106287;28;20031;-77
2021/06/17 06:30:49;;;;;;;12.77;1.60;;;25.60;58.00;;;;;;5089532;28;20123;-78
2021/06/17 06:33:15;;;;;;;23.50;1.83;;;24.60;58.20;;;;;;5089805;28;20039;-80
2021/06/17 06:35:41;;;;;;;12.82;2.13;;;23.50;58.90;;;;;;5106329;28;20047;-80
2021/06/17 06:38:06;;;;;;;9.23;2.20;;;22.90;60.20;;;;;;5089479;28;20062;-80
2021/06/17 06:40:33;;;;;;;7.57;1.55;;;22.50;60.70;;;;;;5106576;28;20024;-80
2021/06/17 06:43:00;;;;;;;10.25;2.00;;;22.40;61.40;;;;;;5106402;28;20020;-80
2021/06/17 06:45:26;;;;;;;11.38;2.08;;;22.10;61.40;;;;;;5089620;28;20139;-79
2021/06/17 06:47:52;;;;;;;6.15;1.70;;;21.60;61.70;;;;;;5106460;28;20076;-79
2021/06/17 06:50:19;;;;;;;15.70;3.15;;;21.10;62.20;;;;;;5090298;28;20032;-79
2021/06/17 06:52:45;;;;;;;11.23;1.70;;;20.70;62.60;;;;;;5106677;28;20422;-80
2021/06/17 06:55:13;;;;;;;9.98;1.90;;;20.30;63.20;;;;;;5072773;28;20028;-78
2021/06/17 06:57:39;;;;;;;7.10;1.77;;;19.90;63.80;;;;;;5106209;28;20027;-78
2021/06/17 07:00:09;;;;;;;7.80;1.80;;;19.60;64.30;;;;;;5107599;28;20016;-79
2021/06/17 07:02:35;;;;;;;11.20;3.13;;;19.30;64.90;;;;;;5106431;28;20047;-78
2021/06/17 07:05:03;;;;;;;12.00;3.15;;;19.10;64.90;;;;;;5072100;28;20063;-78
2021/06/17 07:07:28;;;;;;;15.52;4.13;;;18.90;65.40;;;;;;5107891;28;20098;-79
2021/06/17 07:09:54;;;;;;;10.52;3.15;;;19.10;65.90;;;;;;5106310;28;20131;-79
2021/06/17 07:12:19;;;;;;;9.93;3.67;;;19.20;65.80;;;;;;5106375;28;20035;-81
2021/06/17 07:14:45;;;;;;;7.65;2.17;;;19.20;65.70;;;;;;5106295;28;20055;-79
2021/06/17 07:17:11;;;;;;;8.48;2.35;;;19.60;66.10;;;;;;5089276;28;20103;-79
2021/06/17 07:19:37;;;;;;;8.18;2.10;;;20.20;65.60;;;;;;5107345;28;20027;-79
2021/06/17 07:22:03;;;;;;;8.75;2.72;;;20.60;64.60;;;;;;5106105;28;20493;-79
2021/06/17 07:24:29;;;;;;;11.40;1.73;;;20.60;63.70;;;;;;5089042;28;20028;-80
2021/06/17 07:26:54;;;;;;;7.15;1.92;;;20.70;64.10;;;;;;5106112;28;20032;-78
2021/06/17 07:29:21;;;;;;;9.27;2.80;;;21.30;65.00;;;;;;5088957;28;20047;-79
2021/06/17 07:31:47;;;;;;;10.13;2.47;;;22.20;64.60;;;;;;5107330;28;20023;-82
2021/06/17 07:34:12;;;;;;;6.90;1.67;;;23.50;62.80;;;;;;5107861;28;20024;-79
2021/06/17 07:36:39;;;;;;;13.40;1.85;;;24.30;60.80;;;;;;5109913;28;20024;-81
2021/06/17 07:39:06;;;;;;;6.53;1.60;;;25.50;59.90;;;;;;5109569;28;20026;-77
2021/06/17 07:41:32;;;;;;;6.25;1.83;;;26.80;58.40;;;;;;5109401;28;20471;-78
2021/06/17 07:43:58;;;;;;;12.10;1.92;;;28.00;57.20;;;;;;5109690;28;20035;-80
2021/06/17 07:46:24;;;;;;;9.13;2.00;;;29.10;55.50;;;;;;5109740;28;20114;-78
2021/06/17 07:48:50;;;;;;;7.80;2.00;;;30.20;53.70;;;;;;5109557;28;20111;-79
2021/06/17 07:51:17;;;;;;;8.18;1.75;;;30.90;52.10;;;;;;5092694;28;20394;-78
2021/06/17 07:53:42;;;;;;;5.55;1.20;;;31.20;50.40;;;;;;5110243;27;20108;-78
2021/06/17 07:56:09;;;;;;;14.05;2.40;;;31.10;49.50;;;;;;5110268;28;20032;-78
2021/06/17 07:58:35;;;;;;;13.88;3.05;;;31.00;49.00;;;;;;5092646;28;20069;-79
2021/06/17 08:01:01;;;;;;;5.95;1.48;;;31.10;48.80;;;;;;5110753;28;20023;-78
2021/06/17 08:03:29;;;;;;;5.15;1.67;;;30.80;48.30;;;;;;5109709;28;20028;-79
2021/06/17 08:05:55;;;;;;;6.32;1.92;;;30.80;48.10;;;;;;5110042;28;20028;-79
2021/06/17 08:08:22;;;;;;;15.85;2.03;;;30.60;47.00;;;;;;5091626;28;20402;-81
2021/06/17 08:10:48;;;;;;;12.18;1.90;;;30.30;47.20;;;;;;5091996;28;20041;-80
2021/06/17 08:13:14;;;;;;;9.88;2.10;;;30.20;47.60;;;;;;5108459;28;20362;-81
2021/06/17 08:15:40;;;;;;;7.63;1.90;;;30.50;47.10;;;;;;5108308;28;20067;-80
2021/06/17 08:18:06;;;;;;;7.35;1.67;;;30.00;46.30;;;;;;5108640;28;20023;-79
2021/06/17 08:20:32;;;;;;;15.27;2.72;;;29.20;45.70;;;;;;5109765;28;20031;-80
2021/06/17 08:22:57;;;;;;;13.68;1.65;;;28.90;47.30;;;;;;5110530;28;20027;-79
2021/06/17 08:25:23;;;;;;;6.82;1.50;;;29.40;47.70;;;;;;5092664;28;20108;-77
2021/06/17 08:27:49;;;;;;;5.40;1.15;;;29.90;46.90;;;;;;5111384;28;20027;-77
2021/06/17 08:30:18;;;;;;;6.57;1.77;;;29.50;46.20;;;;;;5110322;28;20019;-77
2021/06/17 08:32:44;;;;;;;17.67;2.70;;;29.50;46.80;;;;;;5090617;28;20031;-77
2021/06/17 08:35:12;;;;;;;10.23;1.85;;;30.40;47.30;;;;;;5110649;28;20058;-77
2021/06/17 08:37:38;;;;;;;12.05;2.03;;;31.70;46.60;;;;;;5109731;28;20035;-77
2021/06/17 08:40:05;;;;;;;8.55;2.17;;;33.00;45.60;;;;;;5111454;28;20015;-76
2021/06/17 08:42:31;;;;;;;12.48;2.60;;;34.00;44.70;;;;;;5110081;28;20031;-77
2021/06/17 08:44:59;;;;;;;7.65;2.05;;;34.90;43.70;;;;;;5109770;28;20027;-76
2021/06/17 08:47:25;;;;;;;9.13;2.00;;;35.50;42.80;;;;;;5107815;28;20128;-78
2021/06/17 08:49:54;;;;;;;7.85;2.40;;;35.20;41.70;;;;;;5110542;28;20019;-78
2021/06/17 08:52:21;;;;;;;8.30;1.70;;;35.30;41.70;;;;;;5110718;28;20047;-76
2021/06/17 08:54:48;;;;;;;9.32;1.80;;;35.70;41.30;;;;;;5109129;28;20032;-76
2021/06/17 08:57:14;;;;;;;6.93;2.15;;;35.70;40.20;;;;;;5110002;28;20087;-77
2021/06/17 08:59:41;;;;;;;7.88;2.08;;;34.90;39.90;;;;;;5110045;28;20511;-76
2021/06/17 09:02:08;;;;;;;9.13;1.70;;;34.80;40.40;;;;;;5108350;28;20738;-76
2021/06/17 09:04:34;;;;;;;6.00;1.73;;;35.20;40.10;;;;;;5109092;28;20059;-78
2021/06/17 09:07:10;;;;;;;5.15;2.00;;;35.30;39.50;;;;;;5108526;28;20059;-76
2021/06/17 09:09:40;;;;;;;6.18;1.80;;;35.40;39.40;;;;;;5108881;28;20051;-77
2021/06/17 09:12:09;;;;;;;5.93;2.53;;;35.90;39.70;;;;;;5110024;28;20058;-75
2021/06/17 09:14:35;;;;;;;6.40;1.98;;;36.70;39.70;;;;;;5092285;28;20386;-78
2021/06/17 09:17:05;;;;;;;5.95;2.10;;;37.20;39.10;;;;;;5110000;28;20482;-76
2021/06/17 09:19:36;;;;;;;9.32;2.42;;;37.60;38.50;;;;;;5109366;27;20076;-76
2021/06/17 09:22:02;;;;;;;10.25;3.25;;;38.00;38.30;;;;;;5108784;28;20039;-77
2021/06/17 09:24:34;;;;;;;6.15;1.92;;;38.20;38.30;;;;;;5104582;28;20051;-77
2021/06/17 09:27:22;;;;;;;11.65;2.80;;;38.30;38.10;;;;;;5109992;28;20023;-75
2021/06/17 09:29:50;;;;;;;5.15;2.40;;;38.50;37.70;;;;;;5107351;28;20035;-76
2021/06/17 09:32:19;;;;;;;11.35;4.18;;;38.50;37.30;;;;;;5109955;28;20028;-76
2021/06/17 09:34:46;;;;;;;3.60;1.65;;;38.60;36.90;;;;;;5108228;28;20077;-78
2021/06/17 09:37:30;;;;;;;4.15;1.70;;;38.30;36.40;;;;;;5109460;28;20024;-76
2021/06/17 09:39:57;;;;;;;12.52;2.33;;;38.20;36.60;;;;;;5073372;28;20024;-77
2021/06/17 09:42:29;;;;;;;8.05;2.47;;;37.50;36.60;;;;;;5090811;28;20084;-76
2021/06/17 09:44:55;;;;;;;7.22;2.45;;;37.00;36.90;;;;;;5108783;28;20027;-78
2021/06/17 09:47:27;;;;;;;6.28;1.80;;;36.80;36.90;;;;;;5108194;28;20103;-76
2021/06/17 09:49:54;;;;;;;8.05;2.15;;;36.00;36.00;;;;;;5109550;28;20043;-76
2021/06/17 09:52:35;;;;;;;6.38;2.25;;;34.70;36.10;;;;;;5108529;28;20043;-77
2021/06/17 09:55:01;;;;;;;9.52;1.88;;;34.10;37.00;;;;;;5106819;28;20024;-76
2021/06/17 09:57:28;;;;;;;11.07;7.55;;;34.50;37.80;;;;;;5117915;27;20032;-77
2021/06/17 09:59:55;;;;;;;8.30;2.70;;;35.30;37.90;;;;;;5108481;27;20106;-76
2021/06/17 10:02:28;;;;;;;7.85;2.20;;;36.20;37.60;;;;;;5107365;28;20699;-77
2021/06/17 10:05:15;;;;;;;5.03;1.90;;;36.10;37.10;;;;;;5109753;28;20043;-77
2021/06/17 10:07:43;;;;;;;6.80;1.92;;;34.70;36.30;;;;;;5099598;28;20032;-80
2021/06/17 10:10:11;;;;;;;4.93;1.75;;;33.60;37.10;;;;;;5108791;28;20093;-79
2021/06/17 10:12:37;;;;;;;11.00;2.22;;;33.70;38.10;;;;;;5091699;28;20620;-78
2021/06/17 10:15:05;;;;;;;5.97;1.80;;;34.60;37.90;;;;;;5108804;28;20035;-79
2021/06/17 10:17:30;;;;;;;7.13;1.85;;;35.30;37.30;;;;;;5110443;28;20023;-81
2021/06/17 10:19:57;;;;;;;5.70;2.10;;;35.20;36.70;;;;;;5108569;28;20111;-79
2021/06/17 10:22:32;;;;;;;8.63;2.20;;;35.20;36.10;;;;;;5109964;28;20026;-81
2021/06/17 10:24:58;;;;;;;4.95;1.50;;;35.20;36.20;;;;;;5108499;28;20030;-81
2021/06/17 10:27:38;;;;;;;6.47;1.80;;;35.70;36.30;;;;;;5108317;28;20362;-82
2021/06/17 10:30:07;;;;;;;7.32;2.08;;;36.30;35.90;;;;;;5109560;28;20056;-82
2021/06/17 10:32:38;;;;;;;6.72;2.17;;;36.70;35.80;;;;;;5108992;28;20030;-79
2021/06/17 10:35:05;;;;;;;4.38;1.55;;;37.30;36.00;;;;;;5096412;28;20160;-81
2021/06/17 10:37:48;;;;;;;5.22;1.60;;;38.00;35.90;;;;;;5090991;28;20091;-79
2021/06/17 10:40:13;;;;;;;4.72;2.35;;;38.00;35.00;;;;;;5105446;28;20019;-80
2021/06/17 10:42:42;;;;;;;3.60;1.73;;;38.00;34.90;;;;;;5108979;28;20016;-81
2021/06/17 10:45:32;;;;;;;3.33;1.30;;;38.40;34.80;;;;;;5109315;28;20020;-81
2021/06/17 10:48:01;;;;;;;6.00;2.28;;;38.90;34.70;;;;;;5109072;28;20027;-81
2021/06/17 10:50:38;;;;;;;5.68;2.35;;;39.20;34.40;;;;;;5087809;28;20035;-79
2021/06/17 10:53:21;;;;;;;5.97;1.67;;;38.70;34.10;;;;;;5095392;28;20041;-79
2021/06/17 10:56:03;;;;;;;8.90;1.38;;;37.60;34.00;;;;;;5102522;28;20038;-79
2021/06/17 10:58:41;;;;;;;5.70;1.88;;;37.40;34.00;;;;;;5101790;28;20012;-79
2021/06/17 11:01:29;;;;;;;8.50;1.92;;;37.40;34.30;;;;;;5107178;28;20020;-81
2021/06/17 11:04:16;;;;;;;6.72;1.90;;;37.70;34.60;;;;;;5109193;28;20130;-80
2021/06/17 11:06:51;;;;;;;10.88;2.03;;;37.90;35.00;;;;;;5088899;28;20032;-80
2021/06/17 11:09:39;;;;;;;5.88;1.70;;;36.80;34.00;;;;;;5091196;28;20102;-80
2021/06/17 11:12:20;;;;;;;4.25;1.40;;;35.20;34.00;;;;;;5088063;28;20030;-83
2021/06/17 11:14:57;;;;;;;6.50;1.98;;;34.30;34.70;;;;;;5100381;28;20038;-81
2021/06/17 11:17:29;;;;;;;4.63;1.77;;;33.70;35.10;;;;;;5112079;28;20114;-80
2021/06/17 11:20:20;;;;;;;6.15;1.80;;;32.80;35.20;;;;;;5111715;28;20016;-79
2021/06/17 11:22:49;;;;;;;5.03;1.42;;;32.00;35.00;;;;;;5113071;28;20323;-79
2021/06/17 11:25:18;;;;;;;3.85;1.52;;;31.10;35.20;;;;;;5111752;28;20023;-79
2021/06/17 11:27:58;;;;;;;8.57;1.83;;;30.60;35.80;;;;;;5113028;28;20107;-79
2021/06/17 11:30:40;;;;;;;5.13;1.90;;;30.30;36.40;;;;;;5112273;28;20077;-81
2021/06/17 11:33:18;;;;;;;6.03;1.73;;;31.20;37.10;;;;;;5111085;28;20058;-77
2021/06/17 11:35:46;;;;;;;5.45;1.75;;;32.70;36.70;;;;;;5094091;28;20082;-81
2021/06/17 11:38:12;;;;;;;5.00;2.00;;;33.80;36.20;;;;;;5111204;28;20020;-78
2021/06/17 11:40:38;;;;;;;6.55;1.88;;;34.70;35.90;;;;;;5111348;28;20485;-78
2021/06/17 11:43:04;;;;;;;4.55;1.98;;;35.40;35.80;;;;;;5112688;28;20031;-78
2021/06/17 11:45:34;;;;;;;7.22;1.88;;;35.80;35.30;;;;;;5112649;28;20476;-79
2021/06/17 11:48:03;;;;;;;6.80;1.80;;;35.90;35.40;;;;;;5111487;28;20126;-80
2021/06/17 11:50:29;;;;;;;8.60;2.22;;;36.00;35.30;;;;;;5111696;28;20026;-78
2021/06/17 11:52:56;;;;;;;5.22;1.60;;;35.70;34.90;;;;;;5112423;28;20055;-81
2021/06/17 11:55:22;;;;;;;9.55;2.60;;;35.30;34.70;;;;;;5111911;28;20016;-80
2021/06/17 11:57:48;;;;;;;6.00;1.77;;;34.60;34.50;;;;;;5110219;28;20489;-80
2021/06/17 12:00:30;;;;;;;6.93;2.08;;;33.50;34.60;;;;;;5112214;28;20028;-79
2021/06/17 12:02:57;;;;;;;3.92;1.50;;;32.60;35.50;;;;;;5090600;28;20031;-79
2021/06/17 12:05:23;;;;;;;6.60;1.55;;;32.60;36.30;;;;;;5091930;28;20046;-79
2021/06/17 12:07:50;;;;;;;5.57;1.50;;;33.00;35.90;;;;;;5100503;28;20134;-79
2021/06/17 12:10:24;;;;;;;5.50;1.83;;;33.60;35.90;;;;;;5111887;28;20032;-78
2021/06/17 12:12:55;;;;;;;6.03;2.17;;;34.30;35.70;;;;;;5112216;28;20019;-79
2021/06/17 12:15:25;;;;;;;4.65;1.98;;;34.80;35.00;;;;;;5111951;28;20047;-81
2021/06/17 12:17:54;;;;;;;5.68;1.90;;;34.30;34.50;;;;;;5112333;28;20761;-80
2021/06/17 12:20:31;;;;;;;6.10;1.70;;;33.60;34.30;;;;;;5110490;28;20027;-79
2021/06/17 12:22:58;;;;;;;8.63;1.73;;;32.90;34.30;;;;;;5112113;28;20043;-81
2021/06/17 12:25:26;;;;;;;7.07;2.53;;;32.00;34.60;;;;;;5111879;28;20016;-81
2021/06/17 12:27:53;;;;;;;8.90;2.28;;;31.30;35.10;;;;;;5110406;28;20026;-80
2021/06/17 12:30:30;;;;;;;3.78;1.98;;;30.80;35.40;;;;;;5093622;28;20020;-78
2021/06/17 12:33:07;;;;;;;10.25;1.98;;;30.10;35.30;;;;;;5109346;28;20020;-76
2021/06/17 12:35:41;;;;;;;7.57;1.85;;;29.60;35.60;;;;;;5111084;28;20115;-82
2021/06/17 12:38:07;;;;;;;4.85;1.45;;;29.10;35.80;;;;;;5110689;28;20023;-79
2021/06/17 12:40:42;;;;;;;6.78;2.03;;;28.70;36.10;;;;;;5093682;28;20393;-80
2021/06/17 12:43:18;;;;;;;3.67;1.52;;;28.20;36.70;;;;;;5092673;28;20095;-80
2021/06/17 12:46:06;;;;;;;7.60;1.58;;;27.90;37.20;;;;;;5095155;28;20113;-81
2021/06/17 12:54:02;;;;;;;6.57;1.42;;;28.90;37.90;;;;;;5105828;28;20039;-77
2021/06/17 12:56:27;;;;;;;4.38;1.45;;;29.80;37.60;;;;;;5110712;28;20047;-79
2021/06/17 12:58:54;;;;;;;5.80;1.40;;;30.40;37.10;;;;;;5111540;28;20139;-81
2021/06/17 13:01:24;;;;;;;8.05;1.67;;;30.90;36.80;;;;;;5092716;28;20026;-83
2021/06/17 13:03:51;;;;;;;4.70;1.42;;;31.50;36.60;;;;;;5111544;28;20039;-79